Time;durP1;ratioP1;P1;durP2;ratioP2;P2;SDS_P1;SDS_P2;PMS_P1;PMS_P2;Temp;Humidity;BMP_temperature;BMP_pressure;BME280_temperature;BME280_humidity;BME280_pressure;Samples;Min_cycle;Max_cycle;Signal;HPM_P1;HPM_P2
2021/05/10 00:00:53;;;;;;;0.40;0.20;;;;;;;;;;5070948;28;20414;-71
2021/05/10 00:03:20;;;;;;;0.40;0.20;;;;;;;;;;5092493;28;20737;-70
2021/05/10 00:05:47;;;;;;;0.40;0.20;;;18.80;88.80;;;;;;5093152;28;20761;-73
2021/05/10 00:08:12;;;;;;;0.40;0.20;;;19.50;88.00;;;;;;5093570;28;20409;-72
2021/05/10 00:10:40;;;;;;;0.40;0.20;;;19.70;90.80;;;;;;5093598;28;20487;-73
2021/05/10 00:13:19;;;;;;;0.40;0.20;;;19.20;79.80;;;;;;5093541;28;20421;-73
2021/05/10 00:15:46;;;;;;;0.40;0.20;;;19.70;86.00;;;;;;5092619;28;20390;-71
2021/05/10 00:18:12;;;;;;;0.43;0.40;;;;;;;;;;5093261;28;20378;-70
2021/05/10 00:20:41;;;;;;;0.40;0.20;;;20.00;84.50;;;;;;5093067;28;20965;-71
2021/05/10 00:23:07;;;;;;;0.45;0.35;;;19.50;83.10;;;;;;5093509;28;20396;-72
2021/05/10 00:25:33;;;;;;;0.40;0.20;;;19.90;82.20;;;;;;5093317;28;20519;-71
2021/05/10 00:27:59;;;;;;;0.40;0.20;;;;;;;;;;5092881;28;20432;-71
2021/05/10 00:30:25;;;;;;;0.40;0.20;;;19.40;80.80;;;;;;5093171;28;20378;-73
2021/05/10 00:32:51;;;;;;;0.40;0.20;;;19.60;82.60;;;;;;5092204;28;20469;-72
2021/05/10 00:35:17;;;;;;;0.40;0.20;;;;;;;;;;5093127;28;20371;-73
2021/05/10 00:37:43;;;;;;;0.50;0.40;;;;;;;;;;5092450;28;20370;-73
2021/05/10 00:40:12;;;;;;;0.50;0.50;;;20.10;79.00;;;;;;5093120;28;20851;-72
2021/05/10 00:42:38;;;;;;;0.40;0.20;;;;;;;;;;5092940;28;20739;-71
2021/05/10 00:45:05;;;;;;;0.40;0.20;;;;;;;;;;5092079;28;20398;-73
2021/05/10 00:47:31;;;;;;;0.40;0.20;;;;;;;;;;5092445;28;20465;-71
2021/05/10 00:49:57;;;;;;;0.40;0.20;;;20.50;75.50;;;;;;5091842;28;20406;-71
2021/05/10 00:52:23;;;;;;;0.40;0.20;;;;;;;;;;5093006;28;20491;-72
2021/05/10 00:54:49;;;;;;;0.40;0.20;;;;;;;;;;5091938;28;20381;-71
2021/05/10 00:57:15;;;;;;;0.40;0.20;;;20.30;76.20;;;;;;5092296;28;20370;-71
2021/05/10 00:59:41;;;;;;;0.40;0.20;;;20.00;75.80;;;;;;5092364;28;20723;-71
2021/05/10 01:02:07;;;;;;;0.40;0.30;;;;;;;;;;5091338;28;20428;-73
2021/05/10 01:04:33;;;;;;;0.40;0.20;;;20.30;74.50;;;;;;5091748;28;20380;-70
2021/05/10 01:06:59;;;;;;;0.40;0.20;;;;;;;;;;5091067;28;20386;-71
2021/05/10 01:09:25;;;;;;;0.40;0.20;;;20.40;76.00;;;;;;5091763;28;20370;-71
2021/05/10 01:11:51;;;;;;;0.40;0.20;;;;;;;;;;5073125;28;20794;-71
2021/05/10 01:14:17;;;;;;;0.40;0.20;;;20.20;73.90;;;;;;5091618;28;20704;-71
2021/05/10 01:16:43;;;;;;;0.40;0.30;;;;;;;;;;5091892;28;20423;-71
2021/05/10 01:19:10;;;;;;;0.40;0.20;;;;;;;;;;5091265;28;20370;-71
2021/05/10 01:21:36;;;;;;;0.40;0.20;;;20.30;74.80;;;;;;5091772;28;20436;-70
2021/05/10 01:24:02;;;;;;;0.40;0.20;;;20.20;74.00;;;;;;5091115;28;20726;-70
2021/05/10 01:26:28;;;;;;;0.40;0.20;;;;;;;;;;5091748;28;20377;-71
2021/05/10 01:28:54;;;;;;;0.40;0.20;;;;;;;;;;5090659;28;20393;-71
2021/05/10 01:31:20;;;;;;;0.40;0.25;;;20.30;74.20;;;;;;5091597;28;20384;-70
2021/05/10 01:33:46;;;;;;;0.40;0.20;;;;;;;;;;5091147;28;20791;-76
2021/05/10 01:36:12;;;;;;;0.40;0.20;;;;;;;;;;5090948;28;20412;-71
2021/05/10 01:38:38;;;;;;;0.40;0.20;;;20.60;78.50;;;;;;5091207;28;20371;-71
2021/05/10 01:41:04;;;;;;;0.40;0.20;;;;;;;;;;5090413;28;20741;-71
2021/05/10 01:43:30;;;;;;;0.40;0.30;;;;;;;;;;5091063;28;20388;-71
2021/05/10 01:45:56;;;;;;;0.40;0.20;;;20.80;71.40;;;;;;5090616;28;20413;-71
2021/05/10 01:48:22;;;;;;;0.40;0.20;;;20.80;70.70;;;;;;5091058;28;20388;-71
2021/05/10 01:50:48;;;;;;;0.40;0.20;;;;;;;;;;5072538;28;20389;-75
2021/05/10 01:53:16;;;;;;;0.40;0.20;;;20.20;70.30;;;;;;5090856;28;20378;-71
2021/05/10 01:55:43;;;;;;;0.40;0.20;;;;;;;;;;5091175;28;20377;-71
2021/05/10 01:58:09;;;;;;;1.30;0.50;;;;;;;;;;5090137;28;20453;-72
2021/05/10 02:00:41;;;;;;;0.40;0.30;;;20.80;76.50;;;;;;5072541;28;20386;-71
2021/05/10 02:03:09;;;;;;;0.40;0.30;;;20.20;71.20;;;;;;5089892;28;21027;-71
2021/05/10 02:05:36;;;;;;;0.40;0.20;;;20.70;72.50;;;;;;5090843;28;20385;-72
2021/05/10 02:08:04;;;;;;;0.40;0.20;;;20.60;72.50;;;;;;5071952;28;20481;-72
2021/05/10 02:10:32;;;;;;;0.40;0.20;;;20.00;72.30;;;;;;5090067;28;20386;-71
2021/05/10 02:13:21;;;;;;;0.40;0.30;;;;;;;;;;5090365;28;20795;-71
2021/05/10 02:15:56;;;;;;;0.40;0.20;;;20.60;72.30;;;;;;5080079;28;20393;-75
2021/05/10 02:18:24;;;;;;;0.40;0.20;;;20.60;81.20;;;;;;5091064;28;20403;-73
2021/05/10 02:20:51;;;;;;;0.90;0.50;;;;;;;;;;5089855;28;20406;-76
2021/05/10 02:23:20;;;;;;;0.40;0.20;;;20.40;81.10;;;;;;5090928;28;20393;-71
2021/05/10 02:25:51;;;;;;;0.40;0.20;;;21.10;70.60;;;;;;5089902;28;20382;-71
2021/05/10 02:28:19;;;;;;;0.40;0.20;;;20.90;81.00;;;;;;5090503;28;20362;-71
2021/05/10 02:30:46;;;;;;;0.40;0.20;;;20.90;82.50;;;;;;5090478;28;20398;-71
2021/05/10 02:33:14;;;;;;;0.40;0.20;;;20.40;71.70;;;;;;5089532;28;20379;-71
2021/05/10 02:35:41;;;;;;;0.40;0.20;;;20.40;79.70;;;;;;5090466;28;20398;-71
2021/05/10 02:38:07;;;;;;;0.40;0.20;;;20.50;76.00;;;;;;5089731;28;20379;-71
2021/05/10 02:40:33;;;;;;;0.40;0.20;;;19.80;76.90;;;;;;5090245;28;20378;-71
2021/05/10 02:42:59;;;;;;;0.40;0.30;;;;;;;;;;5089565;28;20454;-72
2021/05/10 02:45:25;;;;;;;0.40;0.20;;;19.60;79.70;;;;;;5089878;28;20406;-71
2021/05/10 02:47:51;;;;;;;0.40;0.40;;;19.40;80.20;;;;;;5089355;28;20888;-76
2021/05/10 02:50:20;;;;;;;0.40;0.20;;;19.60;82.20;;;;;;5089870;28;20375;-71
2021/05/10 02:52:47;;;;;;;0.40;0.20;;;18.80;91.70;;;;;;5090650;28;20377;-70
2021/05/10 02:55:13;;;;;;;0.40;0.20;;;19.50;88.80;;;;;;5090248;28;20481;-71
2021/05/10 02:57:39;;;;;;;0.50;0.40;;;;;;;;;;5090809;28;20392;-71
2021/05/10 03:00:10;;;;;;;0.45;0.35;;;18.90;91.50;;;;;;5089789;28;20377;-71
2021/05/10 03:02:36;;;;;;;0.40;0.20;;;18.80;90.60;;;;;;5090318;28;20448;-71
2021/05/10 03:05:04;;;;;;;0.40;0.20;;;18.00;92.80;;;;;;5089852;28;20410;-71
2021/05/10 03:07:30;;;;;;;0.40;0.30;;;18.60;96.50;;;;;;5090423;28;20370;-71
2021/05/10 03:09:56;;;;;;;0.40;0.20;;;;;;;;;;5089806;28;20390;-71
2021/05/10 03:12:22;;;;;;;0.40;0.20;;;17.90;95.40;;;;;;5090882;28;20475;-71
2021/05/10 03:14:47;;;;;;;0.40;0.20;;;18.30;96.00;;;;;;5090351;28;20382;-71
2021/05/10 03:17:13;;;;;;;0.40;0.20;;;;;;;;;;5089862;28;20378;-72
2021/05/10 03:19:39;;;;;;;0.40;0.20;;;18.20;97.80;;;;;;5090016;28;20868;-71
2021/05/10 03:22:05;;;;;;;0.40;0.20;;;;;;;;;;5089733;28;20402;-71
2021/05/10 03:24:30;;;;;;;0.40;0.20;;;18.10;96.40;;;;;;5090002;28;20726;-71
2021/05/10 03:26:56;;;;;;;0.40;0.20;;;18.30;96.20;;;;;;5089863;28;20397;-71
2021/05/10 03:29:22;;;;;;;0.40;0.20;;;;;;;;;;5090369;28;20412;-72
2021/05/10 03:31:48;;;;;;;0.40;0.20;;;17.80;97.00;;;;;;5090237;28;20386;-71
2021/05/10 03:34:14;;;;;;;0.40;0.20;;;;;;;;;;5089646;28;20383;-71
2021/05/10 03:36:40;;;;;;;0.40;0.20;;;;;;;;;;5092376;28;20814;-71
2021/05/10 03:39:06;;;;;;;0.40;0.30;;;18.10;98.70;;;;;;5075056;28;20378;-71
2021/05/10 03:41:31;;;;;;;0.40;0.20;;;17.60;99.40;;;;;;5093801;28;20490;-70
2021/05/10 03:43:57;;;;;;;0.40;0.20;;;;;;;;;;5093484;28;20443;-71
2021/05/10 03:46:24;;;;;;;0.40;0.30;;;;;;;;;;5093425;28;20463;-71
2021/05/10 03:48:50;;;;;;;0.40;0.20;;;17.80;99.90;;;;;;5093895;28;20822;-70
2021/05/10 03:51:16;;;;;;;0.40;0.20;;;;;;;;;;5093203;28;20382;-73
2021/05/10 03:53:42;;;;;;;0.40;0.20;;;;;;;;;;5094002;28;20718;-73
2021/05/10 03:56:09;;;;;;;0.40;0.20;;;18.00;97.90;;;;;;5093156;28;20362;-72
2021/05/10 03:58:35;;;;;;;0.40;0.20;;;;;;;;;;5093657;28;20386;-71
2021/05/10 04:01:01;;;;;;;0.40;0.20;;;18.20;96.60;;;;;;5093484;28;20417;-71
2021/05/10 04:03:32;;;;;;;0.40;0.20;;;;;;;;;;5093944;28;20890;-71
2021/05/10 04:06:19;;;;;;;0.40;0.20;;;;;;;;;;5093620;28;20381;-71
2021/05/10 04:16:17;;;;;;;0.40;0.20;;;;;;;;;;5093246;28;20367;-73
2021/05/10 04:18:43;;;;;;;0.40;0.20;;;;;;;;;;5093910;28;20393;-71
2021/05/10 04:21:08;;;;;;;0.40;0.20;;;18.40;95.00;;;;;;5074779;28;20402;-70
2021/05/10 04:23:34;;;;;;;0.40;0.20;;;18.40;95.40;;;;;;5093678;28;20406;-71
2021/05/10 04:26:00;;;;;;;0.40;0.40;;;18.50;99.80;;;;;;5093256;28;20407;-71
2021/05/10 04:28:26;;;;;;;0.40;0.20;;;;;;;;;;5093905;28;20378;-71
2021/05/10 04:30:53;;;;;;;0.40;0.20;;;;;;;;;;5093496;28;20380;-71
2021/05/10 04:33:44;;;;;;;0.40;0.20;;;18.00;96.20;;;;;;5093211;28;20378;-71
2021/05/10 04:36:10;;;;;;;0.40;0.20;;;;;;;;;;5089126;28;20394;-71
2021/05/10 04:38:40;;;;;;;0.40;0.20;;;17.80;97.00;;;;;;5093319;28;20403;-71
2021/05/10 04:41:06;;;;;;;0.40;0.20;;;;;;;;;;5092591;28;20406;-74
2021/05/10 04:43:32;;;;;;;0.40;0.30;;;17.60;95.90;;;;;;5093524;28;20408;-71
2021/05/10 04:46:00;;;;;;;0.40;0.20;;;;;;;;;;5107969;28;20409;-73
2021/05/10 04:48:27;;;;;;;0.40;0.20;;;17.60;99.90;;;;;;5092825;28;20374;-71
2021/05/10 04:50:52;;;;;;;0.40;0.20;;;17.70;99.90;;;;;;5093315;28;20843;-70
2021/05/10 04:53:18;;;;;;;0.40;0.20;;;18.10;98.10;;;;;;5092495;28;20457;-71
2021/05/10 04:55:43;;;;;;;0.40;0.20;;;18.10;97.10;;;;;;5092967;28;20390;-71
2021/05/10 04:58:09;;;;;;;0.40;0.20;;;;;;;;;;5092635;28;20374;-71
2021/05/10 05:00:35;;;;;;;0.40;0.20;;;17.80;99.90;;;;;;5093301;28;20382;-71
2021/05/10 05:03:01;;;;;;;0.40;0.20;;;;;;;;;;5091991;28;20418;-75
2021/05/10 05:05:27;;;;;;;0.40;0.20;;;;;;;;;;5092618;28;20366;-71
2021/05/10 05:07:53;;;;;;;0.40;0.20;;;17.80;99.90;;;;;;5092474;28;20382;-71
2021/05/10 05:10:19;;;;;;;0.50;0.40;;;17.40;99.90;;;;;;5091384;28;20484;-71
2021/05/10 05:12:53;;;;;;;0.40;0.20;;;17.70;98.90;;;;;;5092308;28;20835;-72
2021/05/10 05:15:20;;;;;;;0.40;0.28;;;18.00;99.30;;;;;;5091739;28;20382;-72
2021/05/10 05:17:46;;;;;;;0.40;0.20;;;17.70;99.50;;;;;;5092534;28;20780;-70
2021/05/10 05:20:12;;;;;;;0.40;0.20;;;;;;;;;;5091392;28;20413;-71
2021/05/10 05:22:39;;;;;;;0.40;0.20;;;;;;;;;;5091940;28;20408;-71
2021/05/10 05:25:06;;;;;;;0.40;0.20;;;;;;;;;;5091313;28;20392;-70
2021/05/10 05:27:32;;;;;;;0.40;0.20;;;17.80;99.90;;;;;;5092020;28;20366;-70
2021/05/10 05:29:58;;;;;;;0.40;0.20;;;17.40;99.90;;;;;;5073980;28;20413;-70
2021/05/10 05:32:24;;;;;;;0.40;0.30;;;;;;;;;;5091072;28;20393;-70
2021/05/10 05:34:50;;;;;;;0.40;0.20;;;17.70;99.90;;;;;;5092066;28;20464;-70
2021/05/10 05:37:16;;;;;;;0.40;0.20;;;17.80;99.90;;;;;;5091333;28;20439;-71
2021/05/10 05:39:41;;;;;;;0.40;0.20;;;17.40;99.90;;;;;;5074139;28;20835;-71
2021/05/10 05:42:07;;;;;;;0.40;0.20;;;;;;;;;;5090688;28;20406;-71
2021/05/10 05:44:37;;;;;;;0.40;0.20;;;;;;;;;;5091471;28;20369;-76
2021/05/10 05:47:04;;;;;;;0.40;0.30;;;17.90;98.40;;;;;;5091767;28;20850;-77
2021/05/10 05:49:34;;;;;;;0.40;0.20;;;17.50;99.90;;;;;;5074027;28;20387;-75
2021/05/10 05:52:03;;;;;;;0.40;0.30;;;18.00;99.40;;;;;;5090599;28;20495;-75
2021/05/10 05:54:29;;;;;;;0.50;0.40;;;18.10;99.90;;;;;;5091221;28;20442;-75
2021/05/10 05:56:55;;;;;;;0.40;0.20;;;;;;;;;;5091220;28;20471;-74
2021/05/10 05:59:21;;;;;;;0.40;0.20;;;17.50;98.50;;;;;;5090067;28;20872;-71
2021/05/10 06:01:48;;;;;;;0.40;0.20;;;17.70;99.80;;;;;;5090303;28;20485;-71
2021/05/10 06:04:13;;;;;;;0.40;0.30;;;17.60;99.90;;;;;;5090517;28;20795;-72
2021/05/10 06:06:39;;;;;;;0.40;0.20;;;;;;;;;;5091402;28;20374;-72
2021/05/10 06:09:08;;;;;;;0.40;0.20;;;17.90;99.90;;;;;;5072424;28;20413;-77
2021/05/10 06:11:34;;;;;;;0.60;0.50;;;;;;;;;;5072445;28;20397;-72
2021/05/10 06:14:00;;;;;;;0.40;0.20;;;;;;;;;;5090047;28;20393;-71
2021/05/10 06:16:27;;;;;;;0.40;0.20;;;18.30;99.40;;;;;;5072759;28;20757;-71
2021/05/10 06:18:53;;;;;;;0.40;0.20;;;18.30;98.50;;;;;;5094464;28;20473;-72
2021/05/10 06:21:19;;;;;;;0.40;0.20;;;19.00;95.70;;;;;;5096907;28;20497;-73
2021/05/10 06:23:45;;;;;;;0.50;0.40;;;;;;;;;;5083244;28;20377;-72
2021/05/10 06:26:11;;;;;;;0.40;0.20;;;19.00;95.30;;;;;;5075771;28;20380;-73
2021/05/10 06:28:36;;;;;;;0.40;0.20;;;19.20;99.70;;;;;;5070507;28;20422;-72
2021/05/10 06:31:04;;;;;;;0.40;0.20;;;;;;;;;;5090080;28;20402;-72
2021/05/10 06:33:30;;;;;;;0.40;0.20;;;19.30;95.80;;;;;;5090084;28;20440;-72
2021/05/10 06:35:56;;;;;;;0.40;0.20;;;19.30;95.50;;;;;;5089064;28;20878;-72
2021/05/10 06:38:21;;;;;;;0.40;0.20;;;19.00;95.20;;;;;;5082497;28;20425;-72
2021/05/10 06:40:47;;;;;;;0.40;0.20;;;;;;;;;;5073026;28;20390;-72
2021/05/10 06:43:13;;;;;;;0.80;0.60;;;19.50;97.10;;;;;;5090444;28;20378;-72
2021/05/10 06:45:39;;;;;;;0.40;0.20;;;19.10;97.60;;;;;;5083833;28;20400;-72
2021/05/10 06:48:05;;;;;;;0.40;0.20;;;;;;;;;;5069508;28;20375;-75
2021/05/10 06:50:31;;;;;;;0.40;0.20;;;19.50;99.20;;;;;;5068928;28;20474;-73
2021/05/10 06:52:56;;;;;;;0.40;0.20;;;19.70;94.70;;;;;;5068789;28;20371;-72
2021/05/10 06:55:23;;;;;;;0.40;0.30;;;;;;;;;;5069048;28;20868;-71
2021/05/10 06:57:48;;;;;;;0.40;0.30;;;19.50;94.60;;;;;;5070030;28;20414;-71
2021/05/10 07:00:15;;;;;;;0.60;0.60;;;19.80;95.10;;;;;;5069241;28;20427;-72
2021/05/10 07:02:41;;;;;;;0.63;0.43;;;;;;;;;;5082189;28;20414;-72
2021/05/10 07:05:07;;;;;;;0.40;0.20;;;19.90;94.40;;;;;;5071853;28;20370;-76
2021/05/10 07:07:33;;;;;;;2.80;0.52;;;20.10;94.80;;;;;;5089892;28;20389;-71
2021/05/10 07:09:59;;;;;;;0.40;0.30;;;;;;;;;;5072810;28;20411;-72
2021/05/10 07:12:27;;;;;;;0.40;0.20;;;;;;;;;;5092378;28;20378;-72
2021/05/10 07:14:53;;;;;;;0.40;0.20;;;19.90;99.50;;;;;;5094696;28;20412;-71
2021/05/10 07:17:19;;;;;;;0.40;0.20;;;;;;;;;;5093730;28;20370;-71
2021/05/10 07:19:45;;;;;;;0.40;0.20;;;19.10;94.40;;;;;;5094783;28;20401;-71
2021/05/10 07:22:11;;;;;;;0.40;0.20;;;;;;;;;;5093691;28;20489;-74
2021/05/10 07:24:37;;;;;;;0.40;0.30;;;;;;;;;;5094517;28;20370;-71
2021/05/10 07:27:02;;;;;;;0.40;0.20;;;19.70;95.20;;;;;;5094310;28;20373;-72
2021/05/10 07:29:29;;;;;;;0.40;0.20;;;;;;;;;;5093131;28;20382;-72
2021/05/10 07:31:55;;;;;;;0.40;0.20;;;;;;;;;;5094517;28;20396;-71
2021/05/10 07:34:22;;;;;;;0.40;0.30;;;;;;;;;;5093523;28;20378;-72
2021/05/10 07:36:48;;;;;;;0.40;0.20;;;;;;;;;;5094154;28;20373;-71
2021/05/10 07:39:14;;;;;;;0.50;0.45;;;20.20;95.50;;;;;;5075202;28;20390;-72
2021/05/10 07:41:40;;;;;;;0.40;0.20;;;19.90;99.90;;;;;;5076057;28;20415;-72
2021/05/10 07:44:05;;;;;;;0.40;0.20;;;20.20;99.70;;;;;;5093503;28;20378;-72
2021/05/10 07:46:31;;;;;;;0.40;0.20;;;20.30;97.00;;;;;;5109768;28;20427;-72
2021/05/10 07:48:57;;;;;;;0.40;0.20;;;;;;;;;;5114567;28;20893;-71
2021/05/10 07:51:23;;;;;;;0.40;0.20;;;20.10;99.90;;;;;;5113754;28;20387;-72
2021/05/10 07:53:49;;;;;;;0.40;0.20;;;20.30;96.00;;;;;;5114025;28;20712;-72
2021/05/10 07:56:15;;;;;;;0.40;0.20;;;;;;;;;;5113567;28;20380;-72
2021/05/10 07:58:44;;;;;;;0.40;0.20;;;19.80;96.10;;;;;;5114248;28;20361;-72
2021/05/10 08:01:10;;;;;;;0.40;0.20;;;;;;;;;;5078573;28;20435;-75
2021/05/10 08:03:36;;;;;;;0.40;0.20;;;20.00;97.00;;;;;;5075325;28;20473;-71
2021/05/10 08:06:02;;;;;;;0.40;0.20;;;;;;;;;;5093896;28;20531;-71
2021/05/10 08:08:28;;;;;;;0.50;0.30;;;20.10;96.80;;;;;;5092983;28;20777;-72
2021/05/10 08:10:54;;;;;;;0.40;0.20;;;19.80;96.70;;;;;;5078048;28;20398;-71
2021/05/10 08:13:20;;;;;;;0.40;0.20;;;;;;;;;;5112835;28;20442;-72
2021/05/10 08:15:46;;;;;;;0.40;0.20;;;;;;;;;;5093187;28;20366;-72
2021/05/10 08:18:13;;;;;;;0.40;0.20;;;;;;;;;;5093064;28;20366;-75
2021/05/10 08:20:41;;;;;;;0.40;0.20;;;19.60;98.60;;;;;;5093670;28;20457;-71
2021/05/10 08:23:07;;;;;;;0.40;0.30;;;;;;;;;;5107976;28;20386;-71
2021/05/10 08:25:33;;;;;;;0.40;0.20;;;19.70;97.60;;;;;;5074639;28;20466;-72
2021/05/10 08:27:59;;;;;;;0.60;0.50;;;20.10;99.90;;;;;;5058590;28;20859;-72
2021/05/10 08:30:24;;;;;;;0.40;0.20;;;19.70;97.50;;;;;;5092515;28;20394;-71
2021/05/10 08:32:51;;;;;;;0.40;0.20;;;19.70;97.50;;;;;;5093549;28;20390;-73
2021/05/10 08:35:18;;;;;;;0.40;0.20;;;19.60;97.20;;;;;;5092262;28;20419;-74
2021/05/10 08:37:44;;;;;;;0.40;0.40;;;19.70;99.90;;;;;;5093222;28;20378;-71
2021/05/10 08:40:10;;;;;;;0.40;0.20;;;;;;;;;;5092880;28;20370;-72
2021/05/10 08:42:36;;;;;;;0.40;0.20;;;20.20;99.90;;;;;;5091955;28;20421;-71
2021/05/10 08:45:02;;;;;;;0.40;0.20;;;19.90;99.80;;;;;;5096194;28;20392;-71
2021/05/10 08:47:35;;;;;;;0.50;0.40;;;;;;;;;;5112633;28;20396;-74
2021/05/10 08:50:06;;;;;;;2.70;0.80;;;19.90;99.90;;;;;;5113461;28;20376;-72
2021/05/10 08:52:34;;;;;;;0.40;0.20;;;19.80;97.70;;;;;;5112640;28;20504;-72
2021/05/10 08:55:00;;;;;;;0.40;0.20;;;;;;;;;;5113299;28;20377;-71
2021/05/10 08:57:26;;;;;;;0.40;0.20;;;19.80;98.10;;;;;;5112503;28;20853;-71
2021/05/10 08:59:51;;;;;;;0.40;0.20;;;19.80;98.70;;;;;;5113229;28;20415;-72
2021/05/10 09:02:29;;;;;;;0.40;0.20;;;19.90;98.30;;;;;;5101878;28;20459;-72
2021/05/10 09:05:08;;;;;;;0.40;0.20;;;19.90;97.70;;;;;;5092834;28;20378;-72
2021/05/10 09:07:34;;;;;;;0.40;0.20;;;20.00;97.80;;;;;;5091761;28;20552;-71
2021/05/10 09:10:02;;;;;;;0.40;0.20;;;19.90;97.80;;;;;;5092121;28;20886;-71
2021/05/10 09:12:45;;;;;;;0.40;0.20;;;;;;;;;;5091887;28;20370;-72
2021/05/10 09:15:29;;;;;;;0.40;0.20;;;19.70;98.50;;;;;;5054026;28;20791;-73
2021/05/10 09:18:01;;;;;;;0.50;0.40;;;;;;;;;;5072184;28;20752;-73
2021/05/10 09:20:29;;;;;;;0.40;0.20;;;19.20;98.80;;;;;;5071222;28;20380;-72
2021/05/10 09:22:59;;;;;;;0.40;0.20;;;;;;;;;;5071878;28;20485;-73
2021/05/10 09:25:35;;;;;;;0.40;0.20;;;;;;;;;;5071342;28;20402;-73
2021/05/10 09:28:13;;;;;;;0.40;0.20;;;;;;;;;;5054119;28;20718;-72
2021/05/10 09:30:40;;;;;;;0.40;0.20;;;;;;;;;;5071311;28;20395;-72
2021/05/10 09:33:13;;;;;;;0.40;0.20;;;19.10;99.90;;;;;;5071964;28;20380;-72
2021/05/10 09:35:39;;;;;;;0.40;0.20;;;;;;;;;;5071311;28;20421;-72
2021/05/10 09:38:07;;;;;;;0.40;0.20;;;;;;;;;;5073251;28;20898;-72
2021/05/10 09:40:43;;;;;;;0.40;0.20;;;;;;;;;;5091102;28;20739;-72
2021/05/10 09:43:10;;;;;;;0.40;0.20;;;;;;;;;;5091986;28;20461;-72
2021/05/10 09:45:50;;;;;;;0.40;0.20;;;18.70;99.90;;;;;;5099413;28;20432;-72
2021/05/10 09:48:22;;;;;;;0.40;0.20;;;18.70;99.90;;;;;;5112353;28;20500;-75
2021/05/10 09:50:53;;;;;;;0.40;0.20;;;18.90;99.90;;;;;;5112284;28;20744;-72
2021/05/10 09:53:40;;;;;;;0.40;0.20;;;;;;;;;;5093378;28;20749;-73
2021/05/10 09:56:12;;;;;;;0.40;0.20;;;18.70;99.90;;;;;;5112110;28;20376;-72
2021/05/10 09:58:43;;;;;;;0.40;0.20;;;19.10;99.90;;;;;;5111489;28;20401;-72
2021/05/10 10:01:10;;;;;;;0.40;0.20;;;;;;;;;;5111661;28;20420;-73
2021/05/10 10:03:42;;;;;;;0.40;0.20;;;;;;;;;;5110822;28;20865;-72
2021/05/10 10:06:09;;;;;;;0.50;0.40;;;;;;;;;;5111921;28;20381;-72
2021/05/10 10:08:35;;;;;;;0.40;0.30;;;;;;;;;;5111156;28;20376;-73
2021/05/10 10:11:02;;;;;;;0.40;0.20;;;;;;;;;;5111877;28;20376;-72
2021/05/10 10:13:28;;;;;;;0.40;0.20;;;18.80;99.90;;;;;;5109663;28;20357;-73
2021/05/10 10:15:56;;;;;;;0.40;0.20;;;18.70;99.90;;;;;;5090939;28;20461;-73
2021/05/10 10:18:23;;;;;;;0.40;0.20;;;18.70;99.90;;;;;;5090589;28;20840;-73
2021/05/10 10:20:51;;;;;;;0.40;0.20;;;18.00;99.90;;;;;;5091437;28;20371;-72
2021/05/10 10:23:23;;;;;;;0.40;0.20;;;18.50;99.90;;;;;;5090904;28;20382;-72
2021/05/10 10:25:49;;;;;;;0.80;0.60;;;;;;;;;;5091306;28;20389;-72
2021/05/10 10:28:17;;;;;;;0.40;0.20;;;;;;;;;;5089576;28;20386;-72
2021/05/10 10:30:49;;;;;;;0.40;0.20;;;17.80;99.90;;;;;;5090392;28;20390;-72
2021/05/10 10:33:20;;;;;;;0.40;0.20;;;;;;;;;;5091354;28;20436;-72
2021/05/10 10:35:47;;;;;;;0.40;0.20;;;17.20;99.90;;;;;;5090825;28;20369;-71
2021/05/10 10:38:14;;;;;;;0.40;0.20;;;;;;;;;;5090530;28;20386;-72
2021/05/10 10:40:40;;;;;;;0.40;0.20;;;;;;;;;;5089861;28;20515;-72
2021/05/10 10:43:22;;;;;;;0.40;0.20;;;;;;;;;;5073021;28;20367;-71
2021/05/10 10:46:21;;;;;;;0.40;0.20;;;17.10;99.90;;;;;;5100142;28;20491;-71
2021/05/10 10:48:48;;;;;;;0.40;0.20;;;17.00;99.90;;;;;;5110568;28;20876;-72
2021/05/10 10:51:15;;;;;;;0.40;0.20;;;17.10;99.90;;;;;;5110696;28;20387;-72
2021/05/10 10:53:54;;;;;;;0.40;0.30;;;17.10;99.90;;;;;;5110223;28;20376;-71
2021/05/10 10:56:59;;;;;;;0.40;0.20;;;16.90;99.90;;;;;;5111152;28;20423;-78
2021/05/10 10:59:37;;;;;;;0.40;0.20;;;16.90;99.90;;;;;;5092299;28;20388;-73
2021/05/10 11:02:26;;;;;;;0.40;0.20;;;16.90;99.90;;;;;;5102954;28;20447;-72
2021/05/10 11:05:09;;;;;;;0.40;0.20;;;17.10;99.90;;;;;;5090878;28;20465;-72
2021/05/10 11:07:55;;;;;;;0.40;0.20;;;16.90;99.90;;;;;;5089467;28;20390;-73
2021/05/10 11:10:55;;;;;;;0.40;0.20;;;17.10;99.90;;;;;;5089717;28;20447;-76
2021/05/10 11:13:30;;;;;;;0.40;0.20;;;;;;;;;;5090201;28;20377;-75
2021/05/10 11:16:00;;;;;;;0.40;0.20;;;17.70;99.90;;;;;;5090598;28;20374;-71
2021/05/10 11:18:32;;;;;;;0.40;0.20;;;;;;;;;;5071816;28;20819;-72
2021/05/10 11:20:58;;;;;;;0.40;0.20;;;;;;;;;;5090532;28;20401;-71
2021/05/10 11:23:24;;;;;;;0.40;0.20;;;;;;;;;;5089881;28;20370;-73
2021/05/10 11:25:52;;;;;;;0.40;0.20;;;17.50;99.90;;;;;;5090506;28;20470;-71
2021/05/10 11:28:38;;;;;;;0.40;0.20;;;18.10;99.90;;;;;;5090236;28;20390;-71
2021/05/10 11:31:06;;;;;;;0.40;0.20;;;17.70;99.90;;;;;;5076603;28;20401;-71
2021/05/10 11:33:53;;;;;;;0.40;0.20;;;17.70;99.90;;;;;;5090138;28;20390;-71
2021/05/10 11:36:24;;;;;;;0.40;0.20;;;17.70;99.90;;;;;;5090308;28;20472;-72
2021/05/10 11:39:10;;;;;;;0.40;0.20;;;17.60;99.90;;;;;;5090662;28;20843;-72
2021/05/10 11:41:37;;;;;;;0.40;0.20;;;;;;;;;;5089352;28;20441;-72
2021/05/10 11:44:06;;;;;;;0.40;0.20;;;17.50;99.90;;;;;;5090255;28;20736;-71
2021/05/10 11:46:43;;;;;;;0.40;0.20;;;17.50;99.90;;;;;;5089731;28;20421;-72
2021/05/10 11:49:21;;;;;;;0.40;0.20;;;17.40;99.90;;;;;;5090396;28;20407;-71
2021/05/10 11:51:48;;;;;;;0.40;0.20;;;;;;;;;;5085416;28;20405;-72
2021/05/10 11:54:14;;;;;;;0.40;0.20;;;;;;;;;;5081196;28;20482;-72
2021/05/10 11:56:46;;;;;;;0.40;0.30;;;17.50;99.90;;;;;;5075809;28;20364;-74
2021/05/10 12:01:48;;;;;;;0.40;0.20;;;;;;;;;;5078768;28;20422;-72
2021/05/10 12:04:27;;;;;;;0.40;0.20;;;;;;;;;;5094069;28;20374;-72
2021/05/10 12:06:53;;;;;;;0.40;0.20;;;;;;;;;;5087711;28;20378;-72
2021/05/10 12:09:31;;;;;;;0.40;0.20;;;;;;;;;;5093408;28;20757;-72
2021/05/10 12:11:59;;;;;;;0.40;0.20;;;17.80;99.90;;;;;;5093237;28;20370;-72
2021/05/10 12:14:24;;;;;;;0.40;0.20;;;17.60;99.90;;;;;;5093503;28;20410;-76
2021/05/10 12:17:00;;;;;;;0.40;0.20;;;17.80;99.90;;;;;;5092751;28;20393;-71
2021/05/10 12:19:26;;;;;;;0.40;0.20;;;;;;;;;;5093333;28;20370;-77
2021/05/10 12:37:07;;;;;;;0.40;0.20;;;17.80;99.80;;;;;;5108327;27;20370;-72
2021/05/10 12:39:34;;;;;;;0.40;0.20;;;17.80;97.80;;;;;;5106324;28;20885;-73
2021/05/10 12:42:20;;;;;;;0.40;0.20;;;17.70;99.90;;;;;;5108138;28;20413;-71
2021/05/10 12:45:08;;;;;;;0.40;0.30;;;17.50;99.90;;;;;;5107639;28;20382;-72
2021/05/10 12:47:49;;;;;;;0.40;0.30;;;18.00;99.90;;;;;;5107568;28;20421;-72
2021/05/10 12:50:40;;;;;;;0.40;0.30;;;17.20;96.10;;;;;;5107895;28;20866;-72
2021/05/10 12:53:06;;;;;;;0.40;0.30;;;17.40;94.80;;;;;;5108240;28;20389;-73
2021/05/10 12:55:34;;;;;;;0.40;0.30;;;17.40;94.80;;;;;;5107218;28;20401;-76
2021/05/10 12:58:20;;;;;;;0.40;0.30;;;17.30;95.50;;;;;;5106426;28;20866;-71
2021/05/10 13:00:48;;;;;;;0.40;0.20;;;17.50;97.30;;;;;;5107201;28;20377;-71
2021/05/10 13:03:28;;;;;;;0.40;0.30;;;17.50;99.30;;;;;;5107509;28;20797;-72
2021/05/10 13:05:54;;;;;;;0.40;0.30;;;17.20;99.90;;;;;;5087693;28;20399;-72
2021/05/10 13:08:40;;;;;;;0.40;0.20;;;17.60;95.60;;;;;;5120167;28;20658;-72
2021/05/10 13:11:07;;;;;;;0.40;0.30;;;17.60;95.50;;;;;;5087075;28;20456;-72
2021/05/10 13:13:46;;;;;;;0.40;0.20;;;17.60;95.50;;;;;;5086635;28;20509;-76
2021/05/10 13:16:20;;;;;;;0.40;0.27;;;17.70;96.50;;;;;;5087434;28;20896;-72
2021/05/10 13:19:10;;;;;;;0.40;0.20;;;17.80;94.80;;;;;;5086235;28;20390;-72
2021/05/10 13:27:32;;;;;;;0.40;0.30;;;17.60;96.50;;;;;;5010860;28;20392;-73
2021/05/10 13:32:54;;;;;;;0.40;0.30;;;17.60;96.10;;;;;;5106165;28;20389;-72
2021/05/10 13:35:43;;;;;;;0.40;0.20;;;17.50;98.40;;;;;;5106328;28;20467;-73
2021/05/10 13:38:09;;;;;;;0.40;0.20;;;17.40;99.20;;;;;;5090782;28;20413;-73
2021/05/10 13:40:35;;;;;;;0.40;0.20;;;17.30;99.90;;;;;;5092559;28;20382;-76
2021/05/10 13:43:09;;;;;;;0.40;0.30;;;17.30;99.60;;;;;;5093373;28;20377;-73
2021/05/10 13:45:35;;;;;;;0.40;0.20;;;17.30;99.90;;;;;;5092602;28;20389;-77
2021/05/10 13:48:00;;;;;;;0.40;0.20;;;17.40;97.70;;;;;;5092349;28;20947;-74
2021/05/10 13:50:26;;;;;;;0.40;0.30;;;17.10;98.20;;;;;;5090544;28;20856;-73
2021/05/10 13:52:53;;;;;;;0.40;0.30;;;17.00;97.70;;;;;;5089726;28;20692;-73
2021/05/10 13:55:19;;;;;;;0.40;0.20;;;16.70;99.30;;;;;;5083658;28;20981;-73
2021/05/10 13:57:46;;;;;;;0.40;0.30;;;16.90;99.90;;;;;;5085980;28;20477;-72
2021/05/10 14:00:14;;;;;;;0.40;0.20;;;17.10;99.90;;;;;;5073898;28;20745;-73
2021/05/10 14:02:40;;;;;;;0.40;0.20;;;17.10;99.90;;;;;;5075389;28;20424;-71
2021/05/10 14:05:06;;;;;;;0.40;0.30;;;17.10;99.90;;;;;;5093056;28;20425;-73
2021/05/10 14:07:32;;;;;;;0.40;0.30;;;17.00;99.90;;;;;;5092473;28;20720;-76
2021/05/10 14:09:58;;;;;;;0.40;0.20;;;17.20;99.90;;;;;;5092318;28;20435;-73